TAM3938 SBSP-SBRJ
Flight info
| Callsign | TAM3938 |
|---|---|
| Flight time | 0h 36m |
| Altitude | 25000 |
| Route | NIBRU UZ171 KEVUN |
| Aircraft | A319/M-SDE3FGHIRWY/LB1 |
Departure
| Time | 2026-05-07 23:10 |
|---|---|
| Airport | Congonhas–Deputado Freitas Nobre Airport (SBSP) |
Arrival
| Time | 2026-05-07 23:46 |
|---|---|
| Airport | Santos Dumont Airport (SBRJ) |
| Time | Latitude | Longitude | Altitude | Speed | Heading |
|---|---|---|---|---|---|
| 2026-05-07 22:50 | -23.63030 | -46.65701 | 2601 ft | 0 kts | 147° |
| 2026-05-07 23:01 | -23.63016 | -46.65710 | 2601 ft | 4 kts | 148° |
| 2026-05-07 23:01 | -23.62997 | -46.65726 | 2601 ft | 4 kts | 102° |
| 2026-05-07 23:02 | -23.62997 | -46.65733 | 2601 ft | 0 kts | 57° |
| 2026-05-07 23:06 | -23.62995 | -46.65729 | 2601 ft | 3 kts | 57° |
| 2026-05-07 23:06 | -23.62975 | -46.65695 | 2601 ft | 8 kts | 57° |
| 2026-05-07 23:06 | -23.62933 | -46.65624 | 2601 ft | 14 kts | 57° |
| 2026-05-07 23:07 | -23.62945 | -46.65562 | 2603 ft | 11 kts | 146° |
| 2026-05-07 23:07 | -23.63027 | -46.65523 | 2603 ft | 15 kts | 169° |
| 2026-05-07 23:07 | -23.63137 | -46.65465 | 2602 ft | 20 kts | 147° |
| 2026-05-07 23:07 | -23.63269 | -46.65374 | 2602 ft | 24 kts | 148° |
| 2026-05-07 23:08 | -23.63389 | -46.65290 | 2602 ft | 9 kts | 147° |
| 2026-05-07 23:08 | -23.63439 | -46.65256 | 2602 ft | 10 kts | 148° |
| 2026-05-07 23:08 | -23.63469 | -46.65235 | 2601 ft | 3 kts | 148° |
| 2026-05-07 23:08 | -23.63503 | -46.65206 | 2600 ft | 9 kts | 127° |
| 2026-05-07 23:09 | -23.63477 | -46.65143 | 2599 ft | 9 kts | 32° |
| 2026-05-07 23:09 | -23.63406 | -46.65134 | 2603 ft | 15 kts | 331° |
| 2026-05-07 23:09 | -23.63100 | -46.65345 | 2610 ft | 91 kts | 327° |
| 2026-05-07 23:09 | -23.62369 | -46.65849 | 2644 ft | 150 kts | 330° |
| 2026-05-07 23:10 | -23.61514 | -46.66448 | 3430 ft | 144 kts | 328° |
| 2026-05-07 23:10 | -23.60594 | -46.66835 | 4006 ft | 145 kts | 355° |
| 2026-05-07 23:10 | -23.59564 | -46.66505 | 4212 ft | 173 kts | 32° |
| 2026-05-07 23:10 | -23.58906 | -46.65281 | 4339 ft | 212 kts | 77° |
| 2026-05-07 23:11 | -23.59007 | -46.63557 | 4605 ft | 241 kts | 90° |
| 2026-05-07 23:11 | -23.59074 | -46.61653 | 4979 ft | 263 kts | 85° |
| 2026-05-07 23:11 | -23.59032 | -46.59591 | 5536 ft | 278 kts | 83° |
| 2026-05-07 23:11 | -23.58964 | -46.57460 | 6355 ft | 283 kts | 83° |
| 2026-05-07 23:12 | -23.58902 | -46.55301 | 7188 ft | 287 kts | 84° |
| 2026-05-07 23:12 | -23.58851 | -46.53108 | 8015 ft | 292 kts | 84° |
| 2026-05-07 23:12 | -23.58812 | -46.50878 | 8850 ft | 296 kts | 85° |
| 2026-05-07 23:12 | -23.58782 | -46.48620 | 9684 ft | 300 kts | 85° |
| 2026-05-07 23:13 | -23.58755 | -46.46322 | 10319 ft | 311 kts | 85° |
| 2026-05-07 23:13 | -23.58725 | -46.43878 | 10638 ft | 330 kts | 85° |
| 2026-05-07 23:13 | -23.58694 | -46.41353 | 11253 ft | 336 kts | 86° |
| 2026-05-07 23:13 | -23.58663 | -46.38828 | 11944 ft | 338 kts | 86° |
| 2026-05-07 23:14 | -23.58635 | -46.36260 | 12648 ft | 340 kts | 86° |
| 2026-05-07 23:14 | -23.58606 | -46.33674 | 13326 ft | 342 kts | 86° |
| 2026-05-07 23:14 | -23.58575 | -46.31070 | 13956 ft | 345 kts | 86° |
| 2026-05-07 23:14 | -23.58544 | -46.28447 | 14501 ft | 348 kts | 86° |
| 2026-05-07 23:15 | -23.58510 | -46.25801 | 15029 ft | 351 kts | 86° |
| 2026-05-07 23:15 | -23.58474 | -46.23130 | 15554 ft | 354 kts | 86° |
| 2026-05-07 23:15 | -23.58437 | -46.20425 | 16069 ft | 358 kts | 86° |
| 2026-05-07 23:15 | -23.58400 | -46.17701 | 16593 ft | 361 kts | 86° |
| 2026-05-07 23:16 | -23.58364 | -46.14952 | 17108 ft | 364 kts | 87° |
| 2026-05-07 23:16 | -23.58329 | -46.12182 | 17642 ft | 367 kts | 86° |
| 2026-05-07 23:16 | -23.58292 | -46.09392 | 18171 ft | 370 kts | 86° |
| 2026-05-07 23:16 | -23.58254 | -46.06573 | 18625 ft | 374 kts | 86° |
| 2026-05-07 23:17 | -23.58217 | -46.03776 | 19047 ft | 378 kts | 87° |
| 2026-05-07 23:17 | -23.58177 | -46.00890 | 19466 ft | 382 kts | 87° |
| 2026-05-07 23:17 | -23.58134 | -45.97971 | 19874 ft | 387 kts | 87° |
| 2026-05-07 23:17 | -23.58088 | -45.95022 | 20309 ft | 391 kts | 88° |
| 2026-05-07 23:18 | -23.58040 | -45.92039 | 20724 ft | 396 kts | 88° |
| 2026-05-07 23:18 | -23.57994 | -45.89017 | 21144 ft | 400 kts | 88° |
| 2026-05-07 23:18 | -23.57950 | -45.85972 | 21579 ft | 404 kts | 89° |
| 2026-05-07 23:18 | -23.57909 | -45.82902 | 22007 ft | 407 kts | 89° |
| 2026-05-07 23:19 | -23.57867 | -45.79791 | 22436 ft | 411 kts | 89° |
| 2026-05-07 23:19 | -23.57820 | -45.76669 | 22858 ft | 415 kts | 89° |
| 2026-05-07 23:19 | -23.57765 | -45.73509 | 23271 ft | 419 kts | 89° |
| 2026-05-07 23:19 | -23.57707 | -45.70318 | 23664 ft | 423 kts | 89° |
| 2026-05-07 23:20 | -23.57650 | -45.67092 | 24042 ft | 426 kts | 89° |
| 2026-05-07 23:20 | -23.57595 | -45.63852 | 24417 ft | 429 kts | 89° |
| 2026-05-07 23:20 | -23.57542 | -45.60591 | 24792 ft | 432 kts | 90° |
| 2026-05-07 23:20 | -23.57488 | -45.57315 | 24960 ft | 433 kts | 90° |
| 2026-05-07 23:21 | -23.57429 | -45.54031 | 25007 ft | 438 kts | 89° |
| 2026-05-07 23:21 | -23.57369 | -45.50656 | 25016 ft | 451 kts | 89° |
| 2026-05-07 23:21 | -23.57226 | -45.47206 | 25014 ft | 463 kts | 84° |
| 2026-05-07 23:21 | -23.56652 | -45.43726 | 25016 ft | 468 kts | 77° |
| 2026-05-07 23:22 | -23.55913 | -45.40266 | 25016 ft | 470 kts | 77° |
| 2026-05-07 23:22 | -23.55168 | -45.36786 | 25019 ft | 475 kts | 77° |
| 2026-05-07 23:22 | -23.54414 | -45.33246 | 25017 ft | 484 kts | 77° |
| 2026-05-07 23:22 | -23.53654 | -45.29645 | 25022 ft | 490 kts | 77° |
| 2026-05-07 23:23 | -23.52887 | -45.26013 | 25020 ft | 493 kts | 77° |
| 2026-05-07 23:23 | -23.52113 | -45.22370 | 25022 ft | 494 kts | 77° |
| 2026-05-07 23:23 | -23.51335 | -45.18723 | 25019 ft | 494 kts | 77° |
| 2026-05-07 23:23 | -23.50557 | -45.15076 | 25003 ft | 494 kts | 77° |
| 2026-05-07 23:24 | -23.49780 | -45.11439 | 25005 ft | 494 kts | 77° |
| 2026-05-07 23:24 | -23.48999 | -45.07788 | 25005 ft | 494 kts | 77° |
| 2026-05-07 23:24 | -23.48220 | -45.04144 | 25005 ft | 494 kts | 77° |
| 2026-05-07 23:24 | -23.47441 | -45.00502 | 25006 ft | 494 kts | 77° |
| 2026-05-07 23:25 | -23.46661 | -44.96858 | 25007 ft | 494 kts | 77° |
| 2026-05-07 23:25 | -23.45877 | -44.93217 | 25020 ft | 494 kts | 77° |
| 2026-05-07 23:25 | -23.45092 | -44.89626 | 25012 ft | 494 kts | 77° |
| 2026-05-07 23:25 | -23.44286 | -44.85992 | 25014 ft | 494 kts | 76° |
| 2026-05-07 23:26 | -23.43473 | -44.82361 | 25004 ft | 494 kts | 76° |
| 2026-05-07 23:26 | -23.42627 | -44.78741 | 25018 ft | 494 kts | 73° |
| 2026-05-07 23:26 | -23.41420 | -44.75245 | 25008 ft | 493 kts | 68° |
| 2026-05-07 23:26 | -23.40158 | -44.71764 | 25008 ft | 493 kts | 68° |
| 2026-05-07 23:27 | -23.37633 | -44.64822 | 25010 ft | 493 kts | 68° |
| 2026-05-07 23:27 | -23.36374 | -44.61362 | 25005 ft | 492 kts | 68° |
| 2026-05-07 23:27 | -23.35111 | -44.57892 | 25007 ft | 492 kts | 68° |
| 2026-05-07 23:28 | -23.33839 | -44.54435 | 25005 ft | 492 kts | 68° |
| 2026-05-07 23:28 | -23.32569 | -44.51024 | 25005 ft | 492 kts | 68° |
| 2026-05-07 23:28 | -23.31277 | -44.47609 | 24990 ft | 487 kts | 67° |
| 2026-05-07 23:28 | -23.29997 | -44.44223 | 24983 ft | 480 kts | 68° |
| 2026-05-07 23:29 | -23.28742 | -44.40882 | 24458 ft | 477 kts | 68° |
| 2026-05-07 23:29 | -23.27472 | -44.37490 | 22886 ft | 494 kts | 67° |
| 2026-05-07 23:29 | -23.26169 | -44.34000 | 21480 ft | 496 kts | 67° |
| 2026-05-07 23:29 | -23.24889 | -44.30565 | 20393 ft | 483 kts | 66° |
| 2026-05-07 23:30 | -23.23646 | -44.27230 | 19402 ft | 468 kts | 67° |
| 2026-05-07 23:30 | -23.22439 | -44.23995 | 18397 ft | 456 kts | 67° |
| 2026-05-07 23:30 | -23.21263 | -44.20846 | 17244 ft | 444 kts | 66° |
| 2026-05-07 23:30 | -23.20117 | -44.17779 | 16118 ft | 433 kts | 66° |
| 2026-05-07 23:31 | -23.18995 | -44.14786 | 14975 ft | 425 kts | 66° |
| 2026-05-07 23:31 | -23.17887 | -44.11835 | 13979 ft | 416 kts | 66° |
| 2026-05-07 23:31 | -23.16806 | -44.08963 | 13117 ft | 404 kts | 66° |
| 2026-05-07 23:31 | -23.15755 | -44.06182 | 12374 ft | 397 kts | 65° |
| 2026-05-07 23:32 | -23.14706 | -44.03406 | 11628 ft | 397 kts | 65° |
| 2026-05-07 23:32 | -23.13668 | -44.00648 | 11222 ft | 388 kts | 65° |
| 2026-05-07 23:32 | -23.12672 | -43.97991 | 11098 ft | 370 kts | 64° |
| 2026-05-07 23:32 | -23.11723 | -43.95459 | 10978 ft | 355 kts | 65° |
| 2026-05-07 23:33 | -23.10809 | -43.93023 | 10853 ft | 341 kts | 65° |
| 2026-05-07 23:33 | -23.09927 | -43.90685 | 10739 ft | 329 kts | 65° |
| 2026-05-07 23:33 | -23.09072 | -43.88424 | 10620 ft | 318 kts | 65° |
| 2026-05-07 23:33 | -23.08247 | -43.86241 | 10502 ft | 308 kts | 65° |
| 2026-05-07 23:34 | -23.07445 | -43.84121 | 10388 ft | 299 kts | 64° |
| 2026-05-07 23:34 | -23.06661 | -43.82054 | 10217 ft | 294 kts | 64° |
| 2026-05-07 23:34 | -23.05889 | -43.80018 | 10115 ft | 290 kts | 64° |
| 2026-05-07 23:34 | -23.05121 | -43.77994 | 10003 ft | 289 kts | 64° |
| 2026-05-07 23:35 | -23.04349 | -43.75967 | 9579 ft | 290 kts | 64° |
| 2026-05-07 23:35 | -23.03592 | -43.73974 | 9183 ft | 290 kts | 64° |
| 2026-05-07 23:35 | -23.02821 | -43.71948 | 8844 ft | 289 kts | 64° |
| 2026-05-07 23:35 | -23.02064 | -43.69945 | 8396 ft | 285 kts | 64° |
| 2026-05-07 23:36 | -23.01317 | -43.67965 | 8016 ft | 283 kts | 64° |
| 2026-05-07 23:36 | -23.00562 | -43.65971 | 7622 ft | 287 kts | 64° |
| 2026-05-07 23:36 | -22.99803 | -43.63973 | 7369 ft | 285 kts | 63° |
| 2026-05-07 23:36 | -22.99051 | -43.61996 | 7061 ft | 282 kts | 63° |
| 2026-05-07 23:37 | -22.98302 | -43.60029 | 6558 ft | 281 kts | 63° |
| 2026-05-07 23:37 | -22.97797 | -43.58703 | 6246 ft | 280 kts | 63° |
| 2026-05-07 23:37 | -22.97088 | -43.56829 | 6177 ft | 267 kts | 63° |
| 2026-05-07 23:37 | -22.96394 | -43.54999 | 6106 ft | 258 kts | 63° |
| 2026-05-07 23:38 | -22.95727 | -43.53243 | 6054 ft | 247 kts | 63° |
| 2026-05-07 23:38 | -22.95083 | -43.51551 | 5999 ft | 239 kts | 62° |
| 2026-05-07 23:38 | -22.94442 | -43.49907 | 5874 ft | 235 kts | 61° |
| 2026-05-07 23:38 | -22.93761 | -43.48287 | 5645 ft | 238 kts | 61° |
| 2026-05-07 23:39 | -22.93059 | -43.46659 | 5393 ft | 239 kts | 60° |
| 2026-05-07 23:39 | -22.92360 | -43.45039 | 5153 ft | 236 kts | 59° |
| 2026-05-07 23:39 | -22.91667 | -43.43427 | 4906 ft | 235 kts | 59° |
| 2026-05-07 23:39 | -22.90985 | -43.41827 | 4588 ft | 233 kts | 61° |
| 2026-05-07 23:40 | -22.90314 | -43.40247 | 4195 ft | 229 kts | 61° |
| 2026-05-07 23:40 | -22.89654 | -43.38689 | 3835 ft | 225 kts | 62° |
| 2026-05-07 23:40 | -22.89004 | -43.37158 | 3482 ft | 222 kts | 62° |
| 2026-05-07 23:40 | -22.88360 | -43.35646 | 3124 ft | 219 kts | 63° |
| 2026-05-07 23:41 | -22.87828 | -43.34130 | 2875 ft | 211 kts | 68° |
| 2026-05-07 23:41 | -22.87354 | -43.32659 | 2624 ft | 202 kts | 69° |
| 2026-05-07 23:41 | -22.86909 | -43.31253 | 2424 ft | 191 kts | 69° |
| 2026-05-07 23:41 | -22.86496 | -43.29949 | 2267 ft | 174 kts | 69° |
| 2026-05-07 23:42 | -22.86110 | -43.28738 | 2206 ft | 167 kts | 68° |
| 2026-05-07 23:42 | -22.85732 | -43.27558 | 2135 ft | 162 kts | 69° |
| 2026-05-07 23:42 | -22.85489 | -43.26391 | 2056 ft | 159 kts | 86° |
| 2026-05-07 23:42 | -22.85625 | -43.25206 | 1884 ft | 158 kts | 96° |
| 2026-05-07 23:43 | -22.85795 | -43.24037 | 1694 ft | 156 kts | 96° |
| 2026-05-07 23:43 | -22.85959 | -43.22889 | 1502 ft | 155 kts | 96° |
| 2026-05-07 23:43 | -22.86118 | -43.21781 | 1327 ft | 142 kts | 96° |
| 2026-05-07 23:43 | -22.86265 | -43.20755 | 1171 ft | 134 kts | 97° |
| 2026-05-07 23:44 | -22.86407 | -43.19765 | 1050 ft | 132 kts | 97° |
| 2026-05-07 23:44 | -22.86544 | -43.18785 | 930 ft | 131 kts | 97° |
| 2026-05-07 23:44 | -22.86747 | -43.17826 | 789 ft | 131 kts | 111° |
| 2026-05-07 23:44 | -22.87254 | -43.17006 | 638 ft | 132 kts | 135° |
| 2026-05-07 23:45 | -22.88056 | -43.16535 | 475 ft | 133 kts | 163° |
| 2026-05-07 23:45 | -22.88981 | -43.16423 | 300 ft | 133 kts | 173° |
| 2026-05-07 23:45 | -22.89909 | -43.16360 | 139 ft | 133 kts | 175° |
| 2026-05-07 23:45 | -22.90823 | -43.16297 | 28 ft | 124 kts | 176° |
| 2026-05-07 23:46 | -22.91424 | -43.16258 | 20 ft | 42 kts | 176° |
| 2026-05-07 23:46 | -22.91517 | -43.16268 | 20 ft | 9 kts | 233° |
| 2026-05-07 23:46 | -22.91523 | -43.16337 | 20 ft | 10 kts | 269° |
| 2026-05-07 23:46 | -22.91513 | -43.16390 | 21 ft | 7 kts | 310° |
| 2026-05-07 23:47 | -22.91476 | -43.16426 | 22 ft | 8 kts | 317° |
| 2026-05-07 23:47 | -22.91436 | -43.16468 | 22 ft | 9 kts | 316° |
| 2026-05-07 23:47 | -22.91399 | -43.16499 | 22 ft | 6 kts | 339° |
| 2026-05-07 23:47 | -22.91352 | -43.16504 | 23 ft | 6 kts | 356° |
| 2026-05-07 23:48 | -22.91296 | -43.16508 | 22 ft | 10 kts | 356° |
| 2026-05-07 23:48 | -22.91219 | -43.16512 | 22 ft | 14 kts | 356° |
| 2026-05-07 23:48 | -22.91129 | -43.16518 | 24 ft | 11 kts | 356° |
| 2026-05-07 23:48 | -22.91072 | -43.16534 | 22 ft | 6 kts | 351° |
| 2026-05-07 23:49 | -22.91030 | -43.16537 | 24 ft | 6 kts | 357° |
| 2026-05-07 23:49 | -22.91010 | -43.16553 | 22 ft | 2 kts | 276° |
| 2026-05-07 23:49 | -22.91012 | -43.16571 | 22 ft | 3 kts | 264° |
| 2026-05-07 23:49 | -22.91013 | -43.16592 | 22 ft | 3 kts | 266° |
| 2026-05-07 23:50 | -22.91014 | -43.16611 | 22 ft | 2 kts | 268° |
| 2026-05-07 23:50 | -22.91014 | -43.16617 | 22 ft | 0 kts | 267° |